TimeMST,TemperatureF,Dew PointF,Humidity,Sea Level PressureIn,VisibilityMPH,Wind Direction,Wind SpeedMPH,Gust SpeedMPH,PrecipitationIn,Events,Conditions,WindDirDegrees,DateUTC
12:53 AM,25.0,16.0,69,29.95,10.0,South,4.6,-,N/A,,Overcast,190,2013-02-26 07:53:00
1:53 AM,24.1,17.1,75,29.94,10.0,SE,3.5,-,N/A,,Mostly Cloudy,140,2013-02-26 08:53:00
2:53 AM,24.1,16.0,71,29.91,10.0,SSE,5.8,-,N/A,,Overcast,150,2013-02-26 09:53:00
3:53 AM,25.0,16.0,69,29.88,10.0,Calm,Calm,-,N/A,,Overcast,0,2013-02-26 10:53:00
4:53 AM,25.0,17.1,72,29.89,10.0,WSW,3.5,-,N/A,,Overcast,240,2013-02-26 11:53:00
5:06 AM,24.8,17.6,74,29.88,3.0,South,4.6,-,0.00,Snow,Light Snow,190,2013-02-26 12:06:00
5:22 AM,24.8,19.4,80,29.88,2.0,SSE,4.6,-,0.00,Snow,Light Snow,160,2013-02-26 12:22:00
5:39 AM,24.8,21.2,86,29.87,3.0,SE,4.6,-,0.00,Snow,Light Snow,130,2013-02-26 12:39:00
5:53 AM,23.0,21.0,92,29.90,8.0,SE,5.8,-,0.00,Snow,Light Snow,130,2013-02-26 12:53:00
6:24 AM,24.8,21.2,86,29.88,10.0,Calm,Calm,-,0.00,,Overcast,0,2013-02-26 13:24:00
6:34 AM,24.8,21.2,86,29.88,1.0,Calm,Calm,-,0.00,Snow,Light Snow,0,2013-02-26 13:34:00
6:42 AM,23.0,21.2,93,29.88,0.5,WNW,4.6,-,0.02,Fog-Snow,Snow,290,2013-02-26 13:42:00
6:45 AM,23.0,21.2,93,29.89,0.5,West,4.6,-,0.02,Fog-Snow,Snow,280,2013-02-26 13:45:00
6:53 AM,23.0,21.9,96,29.94,0.5,WNW,5.8,-,0.03,Fog-Snow,Snow,290,2013-02-26 13:53:00
7:00 AM,24.8,21.2,86,29.89,0.5,WNW,5.8,-,0.00,Fog-Snow,Snow,290,2013-02-26 14:00:00
7:16 AM,23.0,21.2,93,29.89,0.5,Calm,Calm,-,0.00,Fog-Snow,Snow,0,2013-02-26 14:16:00
7:32 AM,24.8,21.2,86,29.89,1.2,WSW,4.6,-,0.01,Snow,Light Snow,240,2013-02-26 14:32:00
7:35 AM,24.8,21.2,86,29.89,2.5,WSW,4.6,-,0.01,Snow,Light Snow,250,2013-02-26 14:35:00
7:39 AM,24.8,21.2,86,29.89,5.0,WSW,3.5,-,0.01,Snow,Light Snow,250,2013-02-26 14:39:00
7:53 AM,24.1,21.9,91,29.94,10.0,Calm,Calm,-,0.01,,Overcast,0,2013-02-26 14:53:00
8:53 AM,25.0,21.0,85,29.96,9.0,NW,17.3,-,0.00,,Overcast,310,2013-02-26 15:53:00
9:26 AM,26.6,19.4,74,29.91,10.0,WNW,12.7,-,N/A,,Overcast,300,2013-02-26 16:26:00
9:53 AM,27.0,19.0,72,29.95,10.0,WNW,16.1,23.0,N/A,,Overcast,300,2013-02-26 16:53:00
10:53 AM,28.0,18.0,66,29.96,10.0,NW,21.9,-,N/A,,Overcast,320,2013-02-26 17:53:00
11:53 AM,28.9,18.0,64,29.98,10.0,WNW,19.6,-,N/A,,Overcast,300,2013-02-26 18:53:00
12:53 PM,30.0,19.0,64,29.97,10.0,NW,25.3,31.1,N/A,,Mostly Cloudy,310,2013-02-26 19:53:00
1:53 PM,30.9,18.0,59,29.98,10.0,NW,21.9,-,N/A,,Mostly Cloudy,310,2013-02-26 20:53:00
2:53 PM,30.9,18.0,59,30.00,10.0,NW,20.7,-,N/A,,Overcast,310,2013-02-26 21:53:00
3:53 PM,30.9,18.0,59,30.02,10.0,WNW,24.2,32.2,N/A,,Overcast,290,2013-02-26 22:53:00
4:53 PM,30.9,17.1,57,30.05,10.0,WNW,20.7,28.8,N/A,,Partly Cloudy,300,2013-02-26 23:53:00
5:53 PM,30.0,17.1,59,30.08,10.0,WNW,16.1,-,N/A,,Mostly Cloudy,290,2013-02-27 00:53:00
6:53 PM,30.0,16.0,56,30.12,10.0,WNW,13.8,-,N/A,,Overcast,290,2013-02-27 01:53:00
7:53 PM,28.9,16.0,58,30.14,10.0,WNW,11.5,-,N/A,,Overcast,300,2013-02-27 02:53:00
8:53 PM,28.0,16.0,61,30.18,10.0,NW,4.6,-,N/A,,Mostly Cloudy,320,2013-02-27 03:53:00
9:53 PM,23.0,15.1,72,30.22,10.0,ESE,4.6,-,N/A,,Clear,120,2013-02-27 04:53:00
10:53 PM,19.0,12.9,77,30.25,10.0,SE,8.1,-,N/A,,Clear,130,2013-02-27 05:53:00
11:53 PM,19.0,14.0,81,30.26,10.0,SSE,11.5,-,N/A,,Clear,150,2013-02-27 06:53:00